Keatchie, Louisiana
Current Conditions -  °F | °C
As of 6:56 PM on Monday 24 Nov 2014 (Local Time) from KSHV Reporting Station
Scattered Clouds Scattered Clouds  
Wind Chill: 53°   Ceiling: Unl
Heat Index: 53°   Visibility: 10mi
Dew Point: 31°   Wind: 3mph
Humidity: 43%   Direction: 290°WNW
Pressure: 30.06"   Gusts: NA
Location:  32.19°N, 93.91°W
Report Text: KSHV 250056Z 29003KT 10SM FEW140 SCT250 12/M01 A3006 RMK AO2 SLP179 T01171006
Loading
Personal Weather Stations






























Interactive Weather Map New forecast layout! Learn more

10-Day Weather Forecast

Advertisements
Track Severe Weather on mobile